Weather observations for the past three days for
Everett Snohomish County
Imperial (Metric)
Date Time (pdt) Wind (mph) Vis. (mi.) Weather Sky Cond. Temperature (ºF) Relative Humidity Wind Chill (°F) Heat Index (°F) Pressure Precipitation (in)
Air Dwpt 6 hour altimeter (in) sea level (mb) 1 hr 3 hr 6 hr
Max. Min.
10 07:53 N 6 10.00 Partly Cloudy SCT038 52 46 80% 30.06 1017.9
10 06:53 N 6 10.00 A Few Clouds FEW036 52 46 80% 30.05 1017.5
10 05:53 N 3 10.00 Fair CLR 51.1 46 83% 30.05 1017.4
10 04:53 N 6 10.00 Fair CLR 51.1 46 55.9 51.1 83% 30.05 1017.4
10 03:53 N 7 10.00 Fair CLR 51.1 46.9 86% 30.03 1017.0
10 02:53 N 7 10.00 Fair CLR 51.1 46.9 86% 30.03 1016.9
10 01:53 N 9 10.00 Fair CLR 52 48.9 89% 30.02 1016.5
10 00:53 N 8 10.00 Fair CLR 52 48 86% 30.02 1016.6
09 23:53 N 5 10.00 Fair CLR 54 48.9 83% 30.02 1016.4
09 22:53 N 3 10.00 Fair CLR 55.9 48.9 62.1 55 77% 30.02 1016.6
09 21:53 Calm 10.00 Fair CLR 57 48.9 74% 30.02 1016.6
09 20:53 Calm 10.00 Fair CLR 57.9 48 70% 30.02 1016.4
09 19:53 Calm 10.00 Fair CLR 61 48 63% 30.02 1016.6
09 18:53 N 5 10.00 Fair CLR 61 48.9 65% 30.04 1017.3
09 17:53 NW 6 10.00 Fair CLR 62.1 48.9 62% 30.06 1017.9
09 16:53 N 7 10.00 Fair CLR 62.1 48.9 64 57.9 62% 30.07 1018.3
09 15:53 N 10 10.00 Fair CLR 62.1 48.9 62% 30.1 1019.1
09 14:53 NW 6 10.00 Fair CLR 63 46.9 56% 30.11 1019.7
09 13:53 N 6 10.00 Fair CLR 63 46 54% 30.13 1020.1
09 12:53 N 8 10.00 Fair CLR 62.1 46 56% 30.14 1020.7
09 11:53 NW 6 10.00 Fair CLR 60.1 46 60% 30.16 1021.2
09 10:53 W 6 10.00 Fair CLR 57.9 48 59 46.9 70% 30.17 1021.5
09 09:53 Calm 10.00 Fair CLR 57 48.9 74% 30.17 1021.8
09 08:53 Calm 10.00 Fair CLR 55.9 48 75% 30.19 1022.2
09 07:53 E 3 10.00 Fair CLR 54 48 80% 30.19 1022.5
09 06:53 Calm 10.00 Fair CLR 51.1 46.9 86% 30.2 1022.8
09 05:53 Calm 10.00 Fair CLR 48 46 93% 30.2 1022.7
09 04:53 Calm 10.00 A Few Clouds FEW045 50 46.9 54 50 89% 30.21 1022.9
09 03:53 Vrbl 3 10.00 Mostly Cloudy BKN046 51.1 46.9 86% 30.21 1022.9
09 02:53 SE 7 10.00 Overcast OVC046 52 46.9 83% 30.22 1023.2
09 01:53 SE 7 10.00 Overcast OVC047 52 46.9 83% 30.22 1023.4
09 00:53 SE 3 10.00 Overcast OVC047 53.1 46 77% 30.22 1023.2
08 23:53 Calm 10.00 Overcast OVC046 53.1 45 74% 30.21 1023.0
08 22:53 N 3 10.00 Overcast OVC050 53.1 46 59 52 77% 30.2 1022.8
08 21:53 N 5 10.00 Overcast OVC050 54 46.9 77% 30.2 1022.7
08 20:53 Calm 10.00 Overcast OVC050 54 46.9 77% 30.19 1022.3
08 19:53 N 5 10.00 Mostly Cloudy BKN042 BKN055 55.9 45 67% 30.17 1021.9
08 18:53 N 5 10.00 Mostly Cloudy BKN085 57 46 67% 30.17 1021.7
08 17:53 N 3 10.00 Overcast SCT041 OVC090 57.9 43 58% 30.17 1021.8
08 16:53 Calm 10.00 Overcast BKN041 OVC090 57.9 43 59 53.1 58% 30.17 1021.8
08 15:53 SE 5 10.00 Overcast OVC036 57.9 43 58% 30.17 1021.5
08 14:53 S 7 10.00 Overcast OVC034 57 42.1 58% 30.17 1021.8
08 13:53 S 14 10.00 Overcast BKN035 OVC120 55.9 39.9 55% 30.17 1021.6
08 12:53 S 17 G 23 10.00 Mostly Cloudy BKN035 55.9 39.9 55% 30.15 1021.2
08 11:53 S 13 10.00 Mostly Cloudy BKN029 BKN033 54 41 62% 30.15 1021.1
08 10:53 S 10 10.00 Overcast BKN029 OVC035 53.1 42.1 54 48 66% 30.14 1020.6
08 09:53 S 13 10.00 Mostly Cloudy BKN017 53.1 42.1 66% 30.11 1019.7
08 08:53 S 14 10.00 Overcast SCT015 OVC043 51.1 43 74% 30.1 1019.4
08 07:53 S 13 10.00 Mostly Cloudy FEW005 BKN011 50 45 83% 46 30.1 1019.1
08 06:53 S 6 8.00 Mostly Cloudy FEW005 SCT008 BKN040 48.9 46.9 93% 47 30.06 1018.0
08 05:53 SW 7 7.00 Mostly Cloudy FEW008 BKN048 48.9 46.9 93% 46 30.05 1017.5
08 04:53 S 6 10.00 Fair CLR 50 46 53.1 50 86% 48 30.03 1017.0
08 03:53 SE 6 10.00 Fair CLR 51.1 46 83% 30.02 1016.5
08 02:53 Vrbl 3 10.00 Fair CLR 51.1 46.9 86% 30.01 1016.4
08 01:53 E 6 10.00 Fair CLR 51.1 46.9 86% 30.02 1016.5
08 00:53 NE 5 10.00 Fair CLR 52 48 86% 30.02 1016.7
07 23:53 Calm 10.00 Fair CLR 52 48.9 89% 30.03 1016.9
07 22:53 Calm 10.00 Fair CLR 53.1 48 61 52 83% 30.03 1017.1
07 21:53 E 3 10.00 Fair CLR 55.9 46 70% 30.03 1017.0
07 20:53 Calm 10.00 Fair CLR 57 45 64% 30.04 1017.3
07 19:53 N 3 10.00 Fair CLR 59 45 60% 30.04 1017.3
07 18:53 Calm 10.00 A Few Clouds FEW032 60.1 46 60% 30.05 1017.5
07 17:53 W 5 10.00 Fair CLR 59 46 62% 30.07 1018.2
07 16:53 W 5 10.00 Fair CLR 59 46.9 60.1 52 64% 30.07 1018.2
07 15:53 Calm 10.00 Overcast OVC026 57.9 46.9 67% 30.09 1018.8
07 14:53 Calm 10.00 Overcast OVC023 57 46 67% 30.1 1019.3
07 13:53 Calm 10.00 Overcast OVC023 55.9 46.9 72% 30.12 1019.9
07 12:53 Calm 10.00 Overcast OVC013 54 46.9 77% 30.13 1020.4
07 11:53 Calm 10.00 Overcast OVC013 53.1 46.9 80% 30.14 1020.6
07 10:53 NW 5 10.00 Overcast BKN015 OVC046 53.1 46 53.1 48.9 77% 30.14 1020.8
07 09:53 NW 5 10.00 Mostly Cloudy SCT004 BKN009 52 46 80% 30.14 1020.8
07 08:53 SW 5 9.00 Mostly Cloudy SCT004 BKN009 51.1 46 83% 30.15 1020.9
Date Time (pdt) Wind (mph) Vis. (mi.) Weather Sky Cond. Air Dwpt Max. Min. Relative Humidity Wind Chill (°F) Heat Index (°F) altimeter (in) sea level (mb) 1 hr 3 hr 6 hr
6 hour
Temperature (ºF) Pressure Precipitation (in)